Colorado Star — 9HA2189 — position and weather

sailwx.info

Track history (hours):
 
Tides and Currents Weather Stations Pressure Air Temp Water Temp Dewpoint Dewpoint Depression Visibility Wind Speed Wind Dir Waves Ship Positions

Colorado Star

Last reported at 2016-Sep-28 21:33 UTC. Time now 2016-Sep-28 23:59 UTC.
Position N 52°02' E 003°54'.

Length 128 m; draft 6.1 m.

Type: Ship. MMSI: 248127000.

Date/timePositionNaut miles runAvg speedWind from/ knotsBaromVisibWave heightAir tempDewpointWater temp
2016-Sep-28 21:33N 52°02' E 003°54'12 0.3
2016-Sep-27 00:31N 51°56' E 003°37'0 0.0
2016-Sep-26 20:04N 51°56' E 003°37'0 0.1
2016-Sep-26 19:31N 51°56' E 003°37'0 0.0
2016-Sep-26 08:07N 51°56' E 003°37'0 0.0
2016-Sep-26 02:25N 51°56' E 003°37'0 0.1
2016-Sep-26 01:31N 51°56' E 003°37'0 0.0
2016-Sep-25 17:28N 51°56' E 003°37'0 0.1
2016-Sep-25 16:31N 51°56' E 003°37'0 0.0
2016-Sep-25 09:31N 51°56' E 003°37'0 0.0
2016-Sep-25 07:31N 51°56' E 003°37'0 0.0
2016-Sep-25 04:19N 51°56' E 003°37'0 0.0
2016-Sep-25 00:31N 51°56' E 003°37'0 0.0
2016-Sep-24 22:31N 51°56' E 003°37'0 0.0
2016-Sep-24 21:22N 51°56' E 003°37'0 0.0
2016-Sep-24 19:31N 51°56' E 003°37'0 0.0
2016-Sep-24 18:28N 51°56' E 003°37'0 0.0
2016-Sep-24 17:31N 51°56' E 003°37'0 0.1
2016-Sep-24 16:31N 51°56' E 003°37'0 0.0
2016-Sep-24 14:31N 51°56' E 003°37'0 0.1
2016-Sep-24 12:28N 51°56' E 003°37'0 0.0
2016-Sep-24 10:25N 51°56' E 003°37'0 0.1
2016-Sep-24 09:30N 51°56' E 003°37'28 4.7
2016-Sep-24 03:33N 52°12' E 004°15'0 0.0
2016-Sep-24 02:33N 52°11' E 004°15'0 0.0
2016-Sep-24 01:33N 52°11' E 004°15'0 0.1
2016-Sep-24 00:33N 52°12' E 004°15'0 0.0
2016-Sep-23 19:33N 52°12' E 004°15'0 0.0
2016-Sep-23 17:33N 52°12' E 004°15'0 0.0
2016-Sep-23 16:33N 52°11' E 004°15'0 0.1
2016-Sep-23 15:33N 52°11' E 004°15'0 0.0
2016-Sep-23 13:33N 52°11' E 004°15'0 0.0
2016-Sep-23 09:33N 52°12' E 004°15'0 0.0
2016-Sep-23 06:33N 52°12' E 004°15'0 0.0
2016-Sep-23 04:32N 52°11' E 004°15'0 0.0
2016-Sep-23 03:33N 52°11' E 004°15'0 0.1
2016-Sep-23 02:33N 52°11' E 004°15'0 0.0
2016-Sep-23 01:33N 52°11' E 004°15'0 0.0
2016-Sep-23 00:33N 52°11' E 004°15'0 0.1
2016-Sep-22 23:33N 52°11' E 004°15'0 0.0
2016-Sep-22 20:33N 52°12' E 004°15'0 0.0
2016-Sep-22 12:32N 52°11' E 004°15'13 1.6
2016-Sep-22 04:33N 52°06' E 003°56'1313.0
2016-Sep-22 03:33N 51°58' E 003°39'10 3.2
2016-Sep-22 00:25N 51°53' E 003°25'0 0.0
2016-Sep-21 23:27N 51°53' E 003°25'0 0.0
2016-Sep-21 22:30N 51°53' E 003°25'0 0.0
2016-Sep-21 16:33N 51°53' E 003°26'0 0.0
2016-Sep-21 09:09N 51°53' E 003°25'0 0.1
2016-Sep-21 08:21N 51°53' E 003°25'0 0.0
2016-Sep-21 05:33N 51°53' E 003°26'0 0.0
2016-Sep-21 03:27N 51°53' E 003°26'0 0.0
2016-Sep-20 07:22N 51°53' E 003°25'0 0.0
2016-Sep-19 19:24N 51°53' E 003°25'  
Track history (hours):
 
Tides and Currents Weather Stations Pressure Air Temp Water Temp Dewpoint Dewpoint Depression Visibility Wind Speed Wind Dir Waves Ship Positions

Colorado Star

Last reported at 2016-Sep-28 21:33 UTC. Time now 2016-Sep-28 23:59 UTC.
Position N 52°02' E 003°54'.

Length 128 m; draft 6.1 m.

Type: Ship. MMSI: 248127000.

Date/timePositionNaut miles runAvg speedWind from/ knotsBaromVisibWave heightAir tempDewpointWater temp
2016-Sep-28 21:33N 52°02' E 003°54'12 0.3
2016-Sep-27 00:31N 51°56' E 003°37'0 0.0
2016-Sep-26 20:04N 51°56' E 003°37'0 0.1
2016-Sep-26 19:31N 51°56' E 003°37'0 0.0
2016-Sep-26 08:07N 51°56' E 003°37'0 0.0
2016-Sep-26 02:25N 51°56' E 003°37'0 0.1
2016-Sep-26 01:31N 51°56' E 003°37'0 0.0
2016-Sep-25 17:28N 51°56' E 003°37'0 0.1
2016-Sep-25 16:31N 51°56' E 003°37'0 0.0
2016-Sep-25 09:31N 51°56' E 003°37'0 0.0
2016-Sep-25 07:31N 51°56' E 003°37'0 0.0
2016-Sep-25 04:19N 51°56' E 003°37'0 0.0
2016-Sep-25 00:31N 51°56' E 003°37'0 0.0
2016-Sep-24 22:31N 51°56' E 003°37'0 0.0
2016-Sep-24 21:22N 51°56' E 003°37'0 0.0
2016-Sep-24 19:31N 51°56' E 003°37'0 0.0
2016-Sep-24 18:28N 51°56' E 003°37'0 0.0
2016-Sep-24 17:31N 51°56' E 003°37'0 0.1
2016-Sep-24 16:31N 51°56' E 003°37'0 0.0
2016-Sep-24 14:31N 51°56' E 003°37'0 0.1
2016-Sep-24 12:28N 51°56' E 003°37'0 0.0
2016-Sep-24 10:25N 51°56' E 003°37'0 0.1
2016-Sep-24 09:30N 51°56' E 003°37'28 4.7
2016-Sep-24 03:33N 52°12' E 004°15'0 0.0
2016-Sep-24 02:33N 52°11' E 004°15'0 0.0
2016-Sep-24 01:33N 52°11' E 004°15'0 0.1
2016-Sep-24 00:33N 52°12' E 004°15'0 0.0
2016-Sep-23 19:33N 52°12' E 004°15'0 0.0
2016-Sep-23 17:33N 52°12' E 004°15'0 0.0
2016-Sep-23 16:33N 52°11' E 004°15'0 0.1
2016-Sep-23 15:33N 52°11' E 004°15'0 0.0
2016-Sep-23 13:33N 52°11' E 004°15'0 0.0
2016-Sep-23 09:33N 52°12' E 004°15'0 0.0
2016-Sep-23 06:33N 52°12' E 004°15'0 0.0
2016-Sep-23 04:32N 52°11' E 004°15'0 0.0
2016-Sep-23 03:33N 52°11' E 004°15'0 0.1
2016-Sep-23 02:33N 52°11' E 004°15'0 0.0
2016-Sep-23 01:33N 52°11' E 004°15'0 0.0
2016-Sep-23 00:33N 52°11' E 004°15'0 0.1
2016-Sep-22 23:33N 52°11' E 004°15'0 0.0
2016-Sep-22 20:33N 52°12' E 004°15'0 0.0
2016-Sep-22 12:32N 52°11' E 004°15'13 1.6
2016-Sep-22 04:33N 52°06' E 003°56'1313.0
2016-Sep-22 03:33N 51°58' E 003°39'10 3.2
2016-Sep-22 00:25N 51°53' E 003°25'0 0.0
2016-Sep-21 23:27N 51°53' E 003°25'0 0.0
2016-Sep-21 22:30N 51°53' E 003°25'0 0.0
2016-Sep-21 16:33N 51°53' E 003°26'0 0.0
2016-Sep-21 09:09N 51°53' E 003°25'0 0.1
2016-Sep-21 08:21N 51°53' E 003°25'0 0.0
2016-Sep-21 05:33N 51°53' E 003°26'0 0.0
2016-Sep-21 03:27N 51°53' E 003°26'0 0.0
2016-Sep-20 07:22N 51°53' E 003°25'0 0.0
2016-Sep-19 19:24N 51°53' E 003°25'  

Dump ship's entire track history